Airport ID:KVUF
Update Time (UTC):02/03/2021 13:49
Wind Speed (Knots):0
Wind Direction (Magnetic):130
Temperature (°C):-5
Dew Point (°C):-9
Humidity (%):79
Altimeter (inHg):30.31
Density Altitude (Feet):
Visibility:10+
Clouds (Hundreds of feet):CLR
Present Weather:
METAR:METAR KVUF 021345Z AUTO 00000KT 10SM CLR M05/M09 A3031 RMK A01

The data displayed is for advisory purposes only and is not to be used for flight planning or operations.